Time;durP1;ratioP1;P1;durP2;ratioP2;P2;SDS_P1;SDS_P2;PMS_P1;PMS_P2;Temp;Humidity;BMP_temperature;BMP_pressure;BME280_temperature;BME280_humidity;BME280_pressure;Samples;Min_cycle;Max_cycle;Signal;HPM_P1;HPM_P2
2022/11/06 00:00:16;;;;;;;15.87;10.03;;;7.50;99.90;;;;;;5120977;28;20466;-60
2022/11/06 00:02:43;;;;;;;13.57;9.93;;;7.50;99.90;;;;;;5122436;27;20431;-62
2022/11/06 00:07:57;;;;;;;12.37;11.03;;;7.50;99.90;;;;;;5121234;28;20559;-62
2022/11/06 00:10:25;;;;;;;16.90;10.00;;;7.50;99.90;;;;;;5140345;27;20490;-61
2022/11/06 00:12:52;;;;;;;15.73;10.13;;;7.40;99.90;;;;;;5142258;27;20433;-62
2022/11/06 00:15:23;;;;;;;14.07;9.73;;;7.40;1.00;;;;;;5141933;27;20469;-61
2022/11/06 00:17:53;;;;;;;12.03;10.73;;;7.50;99.90;;;;;;5141984;27;20560;-59
2022/11/06 00:20:20;;;;;;;11.90;9.10;;;7.40;99.90;;;;;;5124970;27;20537;-62
2022/11/06 00:22:48;;;;;;;15.70;9.50;;;7.40;99.90;;;;;;5121242;27;20498;-61
2022/11/06 00:25:17;;;;;;;12.03;9.43;;;7.40;1.00;;;;;;5121191;28;20507;-60
2022/11/06 00:27:44;;;;;;;14.10;10.13;;;7.50;1.00;;;;;;5121604;28;20894;-61
2022/11/06 00:30:18;;;;;;;11.00;8.70;;;7.40;99.90;;;;;;5129635;27;20548;-61
2022/11/06 00:32:46;;;;;;;12.93;9.73;;;7.40;99.90;;;;;;5141643;27;20834;-61
2022/11/06 00:35:16;;;;;;;10.90;8.70;;;7.50;99.90;;;;;;5140577;27;20960;-60
2022/11/06 00:37:44;;;;;;;9.73;8.07;;;7.50;99.90;;;;;;5141289;27;20934;-61
2022/11/06 00:40:13;;;;;;;9.97;8.30;;;7.50;99.90;;;;;;5139542;27;20940;-59
2022/11/06 00:42:42;;;;;;;12.00;8.50;;;7.50;99.90;;;;;;5140764;27;20433;-60
2022/11/06 00:45:10;;;;;;;10.50;8.00;;;7.40;99.90;;;;;;5141516;27;20458;-61
2022/11/06 00:47:39;;;;;;;11.00;7.70;;;7.40;99.90;;;;;;5141605;27;20507;-61
2022/11/06 00:50:08;;;;;;;13.23;8.10;;;7.40;99.90;;;;;;5141166;27;20545;-61
2022/11/06 00:52:38;;;;;;;12.60;8.50;;;7.40;99.90;;;;;;5121532;27;20463;-61
2022/11/06 00:55:05;;;;;;;11.70;7.67;;;7.30;99.90;;;;;;5121563;27;20455;-59
2022/11/06 00:57:33;;;;;;;10.60;8.00;;;7.30;99.90;;;;;;5123044;27;20467;-61
2022/11/06 01:00:06;;;;;;;10.67;8.50;;;7.30;99.90;;;;;;5141169;27;20604;-59
2022/11/06 01:02:34;;;;;;;11.70;7.27;;;7.30;99.90;;;;;;5139364;27;20451;-62
2022/11/06 01:05:02;;;;;;;13.83;8.20;;;7.30;99.90;;;;;;5140556;27;20465;-60
2022/11/06 01:07:29;;;;;;;15.30;8.37;;;7.30;99.90;;;;;;5139690;27;20491;-61
2022/11/06 01:09:59;;;;;;;12.10;8.33;;;7.30;99.90;;;;;;5135307;27;20522;-61
2022/11/06 01:12:31;;;;;;;11.33;7.23;;;7.30;99.90;;;;;;5140617;27;20465;-62
2022/11/06 01:15:01;;;;;;;16.57;8.40;;;7.30;99.90;;;;;;5139888;27;20805;-62
2022/11/06 01:17:29;;;;;;;13.20;8.10;;;7.30;99.90;;;;;;5141190;27;20456;-60
2022/11/06 01:19:56;;;;;;;10.07;7.43;;;7.30;99.90;;;;;;5133119;27;20489;-58
2022/11/06 01:22:23;;;;;;;9.47;8.50;;;7.30;99.90;;;;;;5120165;28;20470;-59
2022/11/06 01:24:50;;;;;;;11.10;7.37;;;7.30;99.90;;;;;;5134718;27;20743;-61
2022/11/06 01:27:19;;;;;;;12.20;7.90;;;7.30;99.90;;;;;;5139316;27;20491;-62
2022/11/06 01:29:47;;;;;;;14.30;7.37;;;7.30;99.90;;;;;;5136966;27;20546;-61
2022/11/06 01:32:17;;;;;;;11.50;7.33;;;7.20;99.90;;;;;;5119571;28;20456;-60
2022/11/06 01:34:45;;;;;;;13.23;8.00;;;7.30;99.90;;;;;;5120330;27;20459;-59
2022/11/06 01:37:13;;;;;;;10.53;7.10;;;7.20;99.90;;;;;;5119281;28;20923;-60
2022/11/06 01:39:40;;;;;;;11.80;6.70;;;7.30;99.90;;;;;;5120420;27;20472;-61
2022/11/06 01:42:07;;;;;;;12.63;7.83;;;7.20;99.90;;;;;;5119496;27;20440;-60
2022/11/06 01:45:17;;;;;;;10.20;7.00;;;7.20;99.90;;;;;;5119310;28;20430;-61
2022/11/06 01:47:45;;;;;;;8.40;7.40;;;7.20;99.90;;;;;;5091512;28;20434;-60
2022/11/06 01:50:14;;;;;;;12.73;6.40;;;7.20;99.90;;;;;;5118871;27;20773;-61
2022/11/06 01:52:44;;;;;;;8.43;5.73;;;7.20;99.90;;;;;;5118045;28;20463;-61
2022/11/06 01:55:19;;;;;;;8.40;6.27;;;7.20;99.90;;;;;;5119590;27;20917;-61
2022/11/06 01:57:47;;;;;;;10.17;5.50;;;7.20;99.90;;;;;;5118203;28;20903;-61
2022/11/06 02:00:15;;;;;;;10.37;6.07;;;7.20;99.90;;;;;;5118380;28;20466;-62
2022/11/06 02:02:42;;;;;;;7.67;6.60;;;7.30;99.90;;;;;;5130518;27;20459;-56
2022/11/06 02:05:12;;;;;;;8.80;6.33;;;7.20;99.90;;;;;;5117931;28;20470;-61
2022/11/06 02:07:43;;;;;;;14.70;6.83;;;7.20;99.90;;;;;;5119390;28;20844;-61
2022/11/06 02:10:10;;;;;;;11.03;6.47;;;7.20;99.90;;;;;;5118744;28;20503;-57
2022/11/06 02:12:50;;;;;;;10.70;6.40;;;7.20;99.90;;;;;;5126716;27;20444;-61
2022/11/06 02:15:30;;;;;;;9.93;6.23;;;7.20;99.90;;;;;;5139560;27;20924;-59
2022/11/06 02:18:17;;;;;;;7.00;5.93;;;7.10;99.90;;;;;;5123654;27;20468;-61
2022/11/06 02:20:59;;;;;;;11.33;6.03;;;7.10;99.90;;;;;;5118916;27;20859;-57
2022/11/06 02:23:57;;;;;;;8.40;6.60;;;7.10;99.90;;;;;;5118895;28;20459;-60
2022/11/06 02:27:01;;;;;;;9.73;5.70;;;7.10;99.90;;;;;;5118205;28;20460;-61
2022/11/06 02:29:36;;;;;;;9.97;6.30;;;7.10;99.90;;;;;;5123491;27;20463;-58
2022/11/06 02:32:10;;;;;;;9.57;6.10;;;7.10;99.90;;;;;;5118743;28;20489;-61
2022/11/06 02:34:39;;;;;;;9.20;6.30;;;7.10;99.90;;;;;;5118939;28;20433;-60
2022/11/06 02:37:13;;;;;;;9.33;6.20;;;7.10;99.90;;;;;;5118779;28;20443;-63
2022/11/06 02:39:47;;;;;;;8.70;5.87;;;7.10;99.90;;;;;;5119823;27;20455;-61
2022/11/06 02:42:18;;;;;;;15.57;5.83;;;7.10;99.90;;;;;;5135980;27;20455;-58
2022/11/06 02:44:50;;;;;;;7.43;5.70;;;7.10;99.90;;;;;;5138212;27;20474;-60
2022/11/06 02:47:22;;;;;;;7.60;6.27;;;7.10;99.90;;;;;;5137191;27;20459;-58
2022/11/06 02:49:55;;;;;;;6.93;6.23;;;7.10;99.90;;;;;;5139396;27;20433;-60
2022/11/06 02:52:28;;;;;;;8.70;5.60;;;7.10;99.90;;;;;;5122052;27;20938;-61
2022/11/06 02:55:04;;;;;;;11.33;5.80;;;7.10;99.90;;;;;;5138803;27;20458;-61
2022/11/06 02:57:36;;;;;;;13.63;6.40;;;7.10;99.90;;;;;;5138985;27;20463;-61
2022/11/06 03:00:08;;;;;;;9.80;6.17;;;7.20;99.90;;;;;;5138930;27;20548;-61
2022/11/06 03:02:40;;;;;;;11.60;5.70;;;7.20;99.90;;;;;;5120516;27;20529;-61
2022/11/06 03:05:14;;;;;;;9.10;5.03;;;7.20;99.90;;;;;;5117890;28;20463;-61
2022/11/06 03:07:50;;;;;;;9.70;5.10;;;7.20;99.90;;;;;;5077880;28;20874;-60
2022/11/06 03:10:18;;;;;;;11.23;5.80;;;7.30;99.90;;;;;;5077121;28;20463;-61
2022/11/06 03:12:55;;;;;;;13.03;5.90;;;7.30;99.90;;;;;;5077901;28;20461;-61
2022/11/06 03:15:34;;;;;;;9.33;5.47;;;7.30;99.90;;;;;;5077314;28;20505;-60
2022/11/06 03:18:13;;;;;;;13.67;5.90;;;7.40;99.90;;;;;;5077162;28;20744;-59
2022/11/06 03:20:46;;;;;;;9.33;5.37;;;7.40;99.90;;;;;;5077029;28;20469;-57
2022/11/06 03:23:18;;;;;;;7.47;5.40;;;7.40;86.20;;;;;;5077279;28;20496;-62
2022/11/06 03:25:51;;;;;;;6.37;4.63;;;7.40;51.50;;;;;;5077800;28;20436;-61
2022/11/06 03:28:26;;;;;;;6.70;4.80;;;7.40;23.80;;;;;;5089883;28;20460;-61
2022/11/06 03:30:59;;;;;;;13.17;5.00;;;7.40;12.80;;;;;;5097396;28;20732;-61
2022/11/06 03:33:33;;;;;;;6.43;4.37;;;7.40;6.40;;;;;;5097494;28;20464;-62
2022/11/06 03:36:04;;;;;;;7.30;4.77;;;7.40;10.20;;;;;;5097538;28;20897;-62
2022/11/06 03:38:37;;;;;;;8.00;4.73;;;7.40;9.00;;;;;;5094964;28;20464;-60
2022/11/06 03:41:09;;;;;;;14.60;4.83;;;7.40;13.20;;;;;;5096765;28;20460;-62
2022/11/06 03:43:39;;;;;;;8.93;5.00;;;7.40;20.00;;;;;;5096825;28;20464;-63
2022/11/06 03:46:12;;;;;;;5.00;4.37;;;7.30;27.00;;;;;;5097723;28;20538;-61
2022/11/06 03:48:42;;;;;;;6.80;5.23;;;7.30;41.00;;;;;;5094991;28;20464;-63
2022/11/06 03:51:17;;;;;;;11.37;5.10;;;7.30;46.50;;;;;;5096855;28;20576;-63
2022/11/06 03:53:49;;;;;;;12.30;5.67;;;7.30;52.80;;;;;;5079463;28;20439;-60
2022/11/06 03:56:22;;;;;;;8.53;5.43;;;7.30;86.50;;;;;;5077031;28;20435;-62
2022/11/06 03:58:50;;;;;;;9.17;4.60;;;7.30;97.10;;;;;;5077428;28;20784;-61
2022/11/06 04:01:25;;;;;;;7.90;4.77;;;7.30;99.90;;;;;;5085485;28;20461;-62
2022/11/06 04:03:58;;;;;;;8.73;4.83;;;7.30;94.70;;;;;;5097244;28;20489;-62
2022/11/06 04:06:30;;;;;;;8.67;4.50;;;7.30;84.50;;;;;;5118545;28;20972;-61
2022/11/06 04:14:36;;;;;;;5.90;4.70;;;7.30;98.10;;;;;;5137416;28;20579;-61
2022/11/06 04:17:10;;;;;;;11.50;4.80;;;7.30;90.80;;;;;;5137571;28;20537;-61
2022/11/06 04:19:38;;;;;;;7.03;4.23;;;7.20;90.90;;;;;;5137960;28;20465;-62
2022/11/06 04:22:23;;;;;;;8.43;4.57;;;7.20;99.90;;;;;;5137941;27;20425;-59
2022/11/06 04:28:11;;;;;;;6.30;4.43;;;7.20;99.90;;;;;;5137740;28;20402;-60
2022/11/06 04:30:48;;;;;;;7.53;4.60;;;7.10;99.90;;;;;;5137270;28;20472;-61
2022/11/06 04:33:22;;;;;;;7.70;5.00;;;7.20;99.90;;;;;;5137924;27;20461;-63
2022/11/06 04:36:00;;;;;;;12.73;6.47;;;7.10;99.90;;;;;;5120293;28;20440;-62
2022/11/06 04:38:42;;;;;;;6.97;4.27;;;7.10;99.90;;;;;;5127538;27;20464;-59
2022/11/06 04:41:18;;;;;;;7.07;4.63;;;7.10;99.90;;;;;;5141475;27;20432;-59
2022/11/06 04:43:48;;;;;;;7.83;4.20;;;7.10;99.90;;;;;;5141360;27;20490;-59
2022/11/06 04:46:21;;;;;;;5.50;4.13;;;7.10;99.90;;;;;;5120739;28;20459;-61
2022/11/06 04:48:51;;;;;;;11.73;4.53;;;7.10;99.90;;;;;;5120417;27;20553;-61
2022/11/06 04:51:23;;;;;;;8.83;4.40;;;7.10;99.90;;;;;;5120991;28;20487;-63
2022/11/06 04:53:52;;;;;;;9.97;4.33;;;7.10;99.90;;;;;;5120686;28;20536;-61
2022/11/06 04:56:26;;;;;;;4.57;4.10;;;7.10;99.90;;;;;;5123655;27;20430;-60
2022/11/06 04:58:55;;;;;;;7.00;4.30;;;7.10;99.90;;;;;;5120714;28;20832;-61
2022/11/06 05:01:23;;;;;;;5.77;4.50;;;7.10;99.90;;;;;;5120849;28;20553;-62
2022/11/06 05:03:51;;;;;;;6.03;4.00;;;7.10;99.90;;;;;;5120872;28;20463;-61
2022/11/06 05:06:22;;;;;;;9.87;4.13;;;7.10;99.90;;;;;;5119429;28;20501;-60
2022/11/06 05:08:52;;;;;;;10.43;5.67;;;7.10;99.90;;;;;;5120208;28;20464;-58
2022/11/06 05:11:22;;;;;;;10.90;5.10;;;7.10;99.90;;;;;;5120372;27;20453;-61
2022/11/06 05:13:50;;;;;;;7.63;4.37;;;7.10;99.90;;;;;;5120434;27;20780;-61
2022/11/06 05:16:17;;;;;;;9.90;4.53;;;7.20;99.90;;;;;;5124780;27;20433;-60
2022/11/06 05:18:44;;;;;;;9.47;4.30;;;7.20;99.90;;;;;;5139179;27;20474;-60
2022/11/06 05:23:57;;;;;;;12.83;4.17;;;7.10;99.90;;;;;;5120001;28;20819;-60
2022/11/06 05:26:24;;;;;;;5.00;3.70;;;7.10;99.90;;;;;;5119779;28;20459;-61
2022/11/06 05:28:53;;;;;;;11.47;3.87;;;7.20;99.90;;;;;;5119641;28;20455;-62
2022/11/06 05:31:20;;;;;;;5.50;3.60;;;7.20;99.90;;;;;;5124450;27;20483;-61
2022/11/06 05:33:47;;;;;;;8.00;4.27;;;7.20;99.90;;;;;;5140718;27;20901;-60
2022/11/06 05:36:19;;;;;;;11.87;4.13;;;7.20;99.90;;;;;;5126033;27;20466;-62
2022/11/06 05:38:46;;;;;;;7.53;4.10;;;7.20;99.90;;;;;;5119885;28;20460;-62
2022/11/06 05:41:13;;;;;;;11.00;5.93;;;7.20;99.90;;;;;;5119662;28;20463;-61
2022/11/06 05:43:41;;;;;;;9.77;3.43;;;7.20;99.90;;;;;;5120434;27;20434;-62
2022/11/06 05:46:08;;;;;;;7.30;3.70;;;7.20;99.90;;;;;;5119279;27;20469;-63
2022/11/06 05:48:35;;;;;;;6.00;3.73;;;7.20;99.90;;;;;;5120356;27;20451;-59
2022/11/06 05:51:04;;;;;;;7.67;4.20;;;7.20;99.90;;;;;;5119551;28;20557;-62
2022/11/06 05:53:37;;;;;;;7.33;4.00;;;7.20;99.90;;;;;;5119589;28;20470;-61
2022/11/06 05:56:05;;;;;;;8.67;4.00;;;7.20;99.90;;;;;;5119903;28;20470;-60
2022/11/06 05:58:32;;;;;;;4.67;3.63;;;7.20;99.90;;;;;;5118452;28;20441;-59
2022/11/06 06:01:00;;;;;;;6.07;3.60;;;7.20;99.90;;;;;;5120065;27;20433;-63
2022/11/06 06:03:27;;;;;;;5.90;3.30;;;7.20;99.90;;;;;;5119425;28;20942;-62
2022/11/06 06:05:55;;;;;;;9.03;4.30;;;7.30;99.90;;;;;;5119009;28;20811;-62
2022/11/06 06:08:22;;;;;;;7.60;4.13;;;7.20;99.90;;;;;;5118839;28;20444;-61
2022/11/06 06:10:51;;;;;;;6.10;3.17;;;7.20;99.90;;;;;;5131022;27;20911;-63
2022/11/06 06:13:18;;;;;;;4.87;3.60;;;7.20;99.90;;;;;;5121005;27;20487;-61
2022/11/06 06:15:46;;;;;;;9.43;3.83;;;7.20;99.90;;;;;;5119083;28;20445;-61
2022/11/06 06:18:13;;;;;;;6.63;3.50;;;7.30;99.90;;;;;;5119511;28;20456;-61
2022/11/06 06:20:40;;;;;;;8.03;3.80;;;7.20;99.90;;;;;;5125177;27;20507;-63
2022/11/06 06:23:13;;;;;;;9.40;3.60;;;7.20;99.90;;;;;;5118481;28;20454;-62
2022/11/06 06:25:41;;;;;;;8.47;4.50;;;7.30;99.90;;;;;;5116936;28;20471;-61
2022/11/06 06:28:09;;;;;;;7.77;4.50;;;7.30;99.10;;;;;;5117379;28;20864;-63
2022/11/06 06:30:37;;;;;;;4.70;3.70;;;7.30;92.70;;;;;;5117596;27;20451;-63
2022/11/06 06:33:06;;;;;;;5.20;3.50;;;7.30;92.80;;;;;;5136390;27;20489;-62
2022/11/06 06:35:35;;;;;;;5.80;3.40;;;7.20;97.90;;;;;;5128848;27;20444;-61
2022/11/06 06:38:04;;;;;;;6.30;4.53;;;7.30;98.80;;;;;;5118053;28;20558;-62
2022/11/06 06:40:31;;;;;;;5.60;3.43;;;7.30;97.50;;;;;;5118277;28;20465;-61
2022/11/06 06:42:59;;;;;;;11.63;3.00;;;7.30;86.50;;;;;;5118110;27;20436;-61
2022/11/06 06:45:28;;;;;;;6.70;3.40;;;7.30;85.50;;;;;;5117819;27;20525;-62
2022/11/06 06:47:55;;;;;;;7.07;2.93;;;7.30;83.10;;;;;;5117599;28;20463;-60
2022/11/06 06:50:25;;;;;;;4.37;3.30;;;7.30;89.90;;;;;;5117076;28;20891;-62
2022/11/06 06:52:55;;;;;;;9.33;3.80;;;7.30;82.30;;;;;;5117331;27;20468;-61
2022/11/06 06:55:23;;;;;;;5.00;3.20;;;7.30;62.50;;;;;;5116386;28;20998;-59
2022/11/06 06:57:56;;;;;;;6.03;3.40;;;7.30;57.70;;;;;;5117818;28;20845;-60
2022/11/06 07:00:24;;;;;;;8.00;3.70;;;7.30;42.90;;;;;;5115128;28;20431;-60
2022/11/06 07:02:54;;;;;;;6.83;3.73;;;7.40;28.30;;;;;;5125210;27;20480;-62
2022/11/06 07:05:23;;;;;;;8.17;3.37;;;7.40;20.10;;;;;;5138723;27;20464;-61
2022/11/06 07:07:50;;;;;;;9.00;3.30;;;7.40;22.10;;;;;;5138591;27;20552;-60
2022/11/06 07:10:18;;;;;;;7.17;3.60;;;7.40;11.20;;;;;;5138097;27;20877;-56
2022/11/06 07:12:45;;;;;;;5.73;3.50;;;7.40;16.40;;;;;;5134799;27;20552;-62
2022/11/06 07:15:12;;;;;;;6.87;3.40;;;7.40;10.20;;;;;;5118134;27;20463;-61
2022/11/06 07:17:43;;;;;;;6.53;2.93;;;7.50;10.50;;;;;;5118312;28;20459;-62
2022/11/06 07:20:14;;;;;;;10.27;3.53;;;7.50;2.20;;;;;;5125512;27;20458;-61
2022/11/06 07:22:46;;;;;;;5.63;2.97;;;7.50;1.00;;;;;;5137777;27;20465;-63
2022/11/06 07:25:13;;;;;;;8.57;3.63;;;7.60;1.00;;;;;;5117218;28;20490;-63
2022/11/06 07:27:41;;;;;;;6.20;3.10;;;7.60;1.00;;;;;;5117556;28;20466;-61
2022/11/06 07:30:09;;;;;;;8.73;3.43;;;7.60;1.00;;;;;;5117879;28;20466;-62
2022/11/06 07:32:39;;;;;;;5.70;3.20;;;7.70;1.00;;;;;;5117832;28;20578;-62
2022/11/06 07:35:10;;;;;;;8.40;3.30;;;7.70;1.00;;;;;;5131817;27;20437;-62
2022/11/06 07:37:41;;;;;;;5.23;3.03;;;7.70;1.00;;;;;;5137466;27;20447;-63
2022/11/06 07:40:10;;;;;;;6.13;3.57;;;7.80;1.00;;;;;;5138698;27;20484;-61
2022/11/06 07:42:37;;;;;;;7.20;3.87;;;7.90;1.00;;;;;;5131488;27;20485;-62
2022/11/06 07:45:08;;;;;;;6.87;3.70;;;7.90;1.00;;;;;;5129278;27;20552;-57
2022/11/06 07:47:36;;;;;;;6.07;4.50;;;8.00;1.00;;;;;;5131713;27;20445;-62
2022/11/06 07:50:04;;;;;;;5.00;3.60;;;8.10;1.00;;;;;;5132377;28;20549;-62
2022/11/06 07:52:32;;;;;;;5.57;3.33;;;8.20;1.00;;;;;;5127320;27;20487;-62
2022/11/06 07:55:07;;;;;;;5.80;3.57;;;8.40;1.00;;;;;;5129751;28;20814;-62
2022/11/06 07:57:38;;;;;;;9.10;3.30;;;8.60;1.00;;;;;;5119138;28;20467;-62
2022/11/06 08:00:08;;;;;;;5.60;2.90;;;8.70;1.00;;;;;;5122590;28;20442;-61
2022/11/06 08:02:35;;;;;;;8.20;3.97;;;8.80;1.00;;;;;;5120376;28;20519;-61
2022/11/06 08:05:03;;;;;;;7.00;3.57;;;8.90;1.00;;;;;;5122038;28;21598;-56
2022/11/06 08:07:30;;;;;;;8.63;3.10;;;8.90;1.00;;;;;;5117715;28;20811;-62
2022/11/06 08:09:57;;;;;;;5.50;3.20;;;9.00;1.00;;;;;;5121032;28;20551;-62
2022/11/06 08:12:26;;;;;;;7.40;3.70;;;9.20;1.00;;;;;;5125843;27;20530;-62
2022/11/06 08:14:53;;;;;;;8.53;4.07;;;9.30;1.00;;;;;;5121395;28;20818;-61
2022/11/06 08:17:21;;;;;;;8.03;4.83;;;9.40;1.00;;;;;;5121020;27;20465;-62
2022/11/06 08:19:51;;;;;;;12.50;3.97;;;9.60;1.00;;;;;;5121795;27;20459;-63
2022/11/06 08:22:22;;;;;;;5.47;3.07;;;9.70;1.00;;;;;;5126446;27;20515;-62
2022/11/06 08:24:49;;;;;;;7.40;3.67;;;9.70;1.00;;;;;;5134699;27;20466;-62
2022/11/06 08:27:17;;;;;;;5.07;3.90;;;9.90;1.00;;;;;;5126395;27;20466;-61
2022/11/06 08:29:45;;;;;;;4.80;3.77;;;9.90;1.00;;;;;;5131822;27;20467;-62
2022/11/06 08:32:12;;;;;;;5.30;3.80;;;9.80;1.00;;;;;;5133032;27;20492;-62
2022/11/06 08:34:43;;;;;;;6.10;3.47;;;9.60;1.00;;;;;;5131241;27;20466;-64
2022/11/06 08:37:10;;;;;;;7.60;3.60;;;9.50;1.00;;;;;;5133144;27;20459;-62
2022/11/06 08:39:38;;;;;;;5.53;3.03;;;9.50;1.00;;;;;;5129524;27;20458;-62
2022/11/06 08:42:05;;;;;;;6.00;3.53;;;9.50;1.00;;;;;;5131016;27;20876;-62
2022/11/06 08:44:33;;;;;;;8.87;3.70;;;9.70;1.00;;;;;;5129350;27;20511;-62
2022/11/06 08:47:02;;;;;;;7.33;4.03;;;10.00;1.00;;;;;;5133193;27;20772;-63
2022/11/06 08:49:29;;;;;;;5.97;2.97;;;10.20;1.00;;;;;;5123157;27;20489;-61
2022/11/06 08:51:57;;;;;;;6.97;3.30;;;10.20;99.90;;;;;;5134108;27;20545;-60
2022/11/06 08:54:26;;;;;;;5.77;3.50;;;10.50;99.90;;;;;;5140771;27;20461;-61
2022/11/06 08:56:53;;;;;;;7.47;3.97;;;10.50;99.90;;;;;;5131159;27;20772;-62
2022/11/06 08:59:21;;;;;;;5.27;3.90;;;10.70;99.90;;;;;;5120357;28;20459;-62
2022/11/06 09:01:48;;;;;;;6.23;3.03;;;11.00;99.90;;;;;;5119748;28;20508;-63
2022/11/06 09:04:20;;;;;;;8.00;3.80;;;10.90;99.90;;;;;;5120704;27;20430;-62
2022/11/06 09:06:47;;;;;;;5.07;2.80;;;11.00;99.90;;;;;;5119996;28;20487;-62
2022/11/06 09:09:14;;;;;;;10.13;3.47;;;10.90;99.90;;;;;;5119923;28;20796;-62
2022/11/06 09:11:41;;;;;;;5.47;3.43;;;10.70;99.90;;;;;;5118682;28;20495;-62
2022/11/06 09:14:09;;;;;;;9.43;4.17;;;10.70;99.90;;;;;;5125810;27;20589;-61
2022/11/06 09:16:40;;;;;;;4.50;3.07;;;11.00;99.90;;;;;;5140190;27;20478;-62
2022/11/06 09:19:09;;;;;;;6.40;3.03;;;11.50;99.90;;;;;;5132497;27;20612;-60
2022/11/06 09:21:39;;;;;;;7.43;3.23;;;11.70;99.90;;;;;;5138638;27;20458;-63
2022/11/06 09:24:06;;;;;;;9.17;3.60;;;11.90;99.90;;;;;;5139400;27;20528;-62
2022/11/06 09:26:35;;;;;;;7.90;5.33;;;11.80;99.90;;;;;;5131484;27;20434;-62
2022/11/06 09:29:05;;;;;;;13.00;4.30;;;11.80;99.90;;;;;;5128917;27;20464;-63
2022/11/06 09:31:33;;;;;;;7.00;3.10;;;12.20;99.90;;;;;;5131233;27;20504;-63
2022/11/06 09:34:00;;;;;;;4.97;2.40;;;12.60;99.90;;;;;;5139962;27;20806;-63
2022/11/06 09:36:30;;;;;;;5.70;2.90;;;12.70;99.90;;;;;;5139381;27;20459;-62
2022/11/06 09:38:59;;;;;;;6.20;2.80;;;13.00;99.90;;;;;;5123867;27;20938;-60
2022/11/06 09:41:36;;;;;;;4.90;3.20;;;13.30;99.90;;;;;;5119835;28;20951;-63
2022/11/06 09:44:19;;;;;;;8.83;2.97;;;13.10;99.90;;;;;;5120037;28;20459;-64
2022/11/06 09:46:48;;;;;;;4.87;3.30;;;12.30;99.90;;;;;;5119626;28;20465;-62
2022/11/06 09:49:21;;;;;;;5.17;3.20;;;11.90;99.90;;;;;;5132743;27;20469;-62
2022/11/06 09:51:58;;;;;;;7.47;3.27;;;11.50;99.90;;;;;;5140358;27;20473;-61
2022/11/06 09:54:31;;;;;;;6.13;2.97;;;11.30;99.90;;;;;;5139428;27;20490;-63
2022/11/06 09:57:03;;;;;;;6.10;2.87;;;11.40;99.90;;;;;;5139324;27;20463;-62
2022/11/06 09:59:34;;;;;;;6.50;3.40;;;11.60;99.90;;;;;;5138266;27;20465;-60
2022/11/06 10:02:02;;;;;;;5.60;3.13;;;11.80;99.90;;;;;;5117954;27;20550;-62
2022/11/06 10:04:39;;;;;;;5.80;3.50;;;11.80;99.90;;;;;;5131771;27;20454;-62
2022/11/06 10:07:21;;;;;;;8.23;3.30;;;11.80;99.90;;;;;;5138424;27;20565;-62
2022/11/06 10:09:50;;;;;;;4.73;2.67;;;11.80;99.90;;;;;;5118220;28;20859;-62
2022/11/06 10:12:28;;;;;;;4.23;2.43;;;11.60;99.90;;;;;;5117692;28;20463;-63
2022/11/06 10:15:03;;;;;;;6.80;2.90;;;11.50;99.90;;;;;;5118182;28;20921;-62
2022/11/06 10:17:40;;;;;;;7.57;2.67;;;11.40;99.90;;;;;;5119218;28;20465;-62
2022/11/06 10:20:17;;;;;;;5.90;2.90;;;11.30;99.90;;;;;;5117129;27;20448;-60
2022/11/06 10:22:54;;;;;;;4.37;3.30;;;11.30;99.90;;;;;;5118330;28;20737;-62
2022/11/06 10:25:34;;;;;;;7.10;3.47;;;11.40;99.90;;;;;;5118267;28;20490;-61
2022/11/06 10:28:03;;;;;;;4.60;3.17;;;11.80;99.90;;;;;;5118261;28;20468;-62
2022/11/06 10:30:39;;;;;;;11.33;3.90;;;12.10;99.90;;;;;;5131155;27;20750;-62
2022/11/06 10:33:35;;;;;;;3.50;3.00;;;12.30;99.90;;;;;;5117879;28;20957;-62
2022/11/06 10:36:10;;;;;;;4.63;2.73;;;12.50;99.90;;;;;;5119086;28;20868;-63
2022/11/06 10:38:47;;;;;;;4.97;3.00;;;12.50;99.90;;;;;;5118459;28;20459;-62
2022/11/06 10:41:21;;;;;;;4.13;3.00;;;12.60;99.90;;;;;;5117256;28;20487;-63
2022/11/06 10:43:52;;;;;;;4.07;2.80;;;12.50;99.90;;;;;;5118572;28;20451;-62
2022/11/06 10:46:27;;;;;;;5.20;2.57;;;12.30;99.90;;;;;;5117353;28;20460;-61
2022/11/06 10:48:58;;;;;;;4.50;2.80;;;12.30;99.90;;;;;;5126403;27;20564;-63
2022/11/06 10:51:46;;;;;;;7.60;3.20;;;12.20;99.90;;;;;;5131334;27;20431;-63
2022/11/06 10:54:30;;;;;;;9.53;3.40;;;12.30;99.90;;;;;;5117273;28;20489;-62
2022/11/06 10:57:22;;;;;;;6.40;3.33;;;12.40;99.90;;;;;;5129666;27;20888;-62
2022/11/06 10:59:51;;;;;;;5.47;3.03;;;12.30;99.90;;;;;;5138811;27;20463;-62
2022/11/06 11:02:34;;;;;;;5.00;3.17;;;12.40;99.90;;;;;;5119545;27;20463;-61
2022/11/06 11:05:11;;;;;;;7.10;3.27;;;12.20;99.90;;;;;;5117597;28;20447;-62
2022/11/06 11:07:42;;;;;;;6.97;3.43;;;12.10;99.90;;;;;;5076714;28;20453;-62
2022/11/06 11:10:32;;;;;;;5.10;3.40;;;12.00;99.90;;;;;;5077863;28;20913;-62
2022/11/06 11:13:05;;;;;;;6.37;3.00;;;12.00;99.90;;;;;;5094882;28;20438;-60
2022/11/06 11:15:46;;;;;;;4.70;3.40;;;11.80;99.90;;;;;;5097253;28;20488;-61
2022/11/06 11:18:19;;;;;;;8.23;4.23;;;11.70;99.90;;;;;;5097623;28;20456;-62
2022/11/06 11:20:48;;;;;;;7.50;3.80;;;11.60;99.90;;;;;;5096733;28;20465;-59
2022/11/06 11:23:20;;;;;;;10.00;3.23;;;11.60;99.90;;;;;;5094283;28;20571;-63
2022/11/06 11:25:49;;;;;;;6.87;5.17;;;11.50;99.90;;;;;;5076419;28;20472;-59
2022/11/06 11:28:37;;;;;;;7.67;3.70;;;11.50;99.90;;;;;;5077112;28;20889;-62
2022/11/06 11:31:08;;;;;;;4.73;3.03;;;11.60;99.90;;;;;;5094579;28;20464;-62
2022/11/06 11:33:36;;;;;;;9.33;3.70;;;11.60;99.90;;;;;;5097514;28;20847;-62
2022/11/06 11:36:06;;;;;;;6.20;4.17;;;11.50;99.90;;;;;;5088277;28;20457;-62
2022/11/06 11:38:37;;;;;;;8.40;4.17;;;11.70;99.90;;;;;;5077138;28;20454;-62
2022/11/06 11:41:09;;;;;;;4.67;3.10;;;11.60;99.90;;;;;;5077089;28;20557;-62
2022/11/06 11:43:37;;;;;;;5.47;3.63;;;11.60;99.90;;;;;;5076428;28;20524;-64
2022/11/06 11:46:19;;;;;;;6.07;3.40;;;11.50;99.90;;;;;;5081035;28;20897;-61
2022/11/06 11:48:51;;;;;;;8.53;3.87;;;11.50;99.90;;;;;;5096923;28;20554;-62
2022/11/06 11:51:28;;;;;;;5.00;3.30;;;11.40;99.90;;;;;;5095276;28;20556;-62
2022/11/06 11:53:59;;;;;;;7.37;3.60;;;11.40;99.90;;;;;;5076707;28;20941;-62
2022/11/06 11:56:35;;;;;;;7.80;3.57;;;11.30;99.90;;;;;;5076044;28;20461;-63
2022/11/06 11:59:04;;;;;;;5.83;3.50;;;11.30;99.90;;;;;;5076437;28;20909;-62
2022/11/06 12:01:42;;;;;;;5.97;3.43;;;11.30;99.90;;;;;;5075682;28;20897;-62
2022/11/06 12:04:24;;;;;;;6.70;2.93;;;11.40;99.90;;;;;;5075989;28;20461;-62
2022/11/06 12:06:58;;;;;;;6.60;3.83;;;11.40;99.90;;;;;;5104960;28;20457;-60
2022/11/06 12:09:27;;;;;;;5.60;4.03;;;11.50;99.90;;;;;;5137244;28;20565;-59
2022/11/06 12:12:00;;;;;;;8.33;3.53;;;11.50;99.90;;;;;;5137713;28;20465;-62
2022/11/06 12:14:37;;;;;;;8.37;3.87;;;11.50;99.90;;;;;;5137506;28;20556;-62
2022/11/06 12:17:20;;;;;;;4.37;3.23;;;11.60;99.90;;;;;;5137786;28;20458;-64
2022/11/06 12:19:52;;;;;;;5.17;3.00;;;11.70;99.90;;;;;;5118111;28;20462;-64
2022/11/06 12:22:26;;;;;;;5.10;3.23;;;11.70;99.90;;;;;;5117117;28;20810;-63
2022/11/06 12:25:00;;;;;;;4.77;2.70;;;11.80;99.90;;;;;;5117398;28;20538;-64
2022/11/06 12:27:33;;;;;;;4.03;2.83;;;11.90;99.90;;;;;;5117491;28;20479;-63
2022/11/06 12:30:07;;;;;;;6.50;2.67;;;11.90;99.90;;;;;;5126424;28;20452;-64
2022/11/06 12:32:45;;;;;;;7.50;3.30;;;11.80;99.90;;;;;;5117084;28;20557;-64
2022/11/06 12:35:19;;;;;;;3.57;2.40;;;11.90;99.90;;;;;;5116625;28;20494;-64
2022/11/06 12:37:56;;;;;;;4.23;3.07;;;11.90;99.90;;;;;;5116808;28;20504;-64
2022/11/06 12:40:29;;;;;;;4.20;2.97;;;11.70;99.90;;;;;;5119766;28;20503;-64
2022/11/06 12:43:04;;;;;;;4.40;2.80;;;11.60;99.90;;;;;;5123805;28;20474;-64
2022/11/06 12:45:51;;;;;;;6.03;3.00;;;11.60;99.90;;;;;;5136145;27;20773;-64
2022/11/06 12:48:32;;;;;;;3.50;2.27;;;11.50;99.90;;;;;;5136161;27;20898;-65
2022/11/06 12:51:08;;;;;;;7.10;4.10;;;11.50;99.90;;;;;;5132589;27;20454;-64
2022/11/06 12:53:52;;;;;;;4.83;2.70;;;11.50;99.90;;;;;;5136566;28;20487;-64
2022/11/06 12:56:25;;;;;;;7.00;2.87;;;11.50;99.90;;;;;;5138559;27;20483;-63
2022/11/06 12:59:01;;;;;;;5.97;3.87;;;11.50;99.90;;;;;;5140595;27;20461;-64
2022/11/06 13:01:42;;;;;;;5.10;3.37;;;11.20;99.90;;;;;;5127240;27;20470;-63
2022/11/06 13:04:42;;;;;;;4.37;2.77;;;11.30;99.90;;;;;;5119839;27;20901;-64
2022/11/06 13:07:31;;;;;;;4.70;2.67;;;11.40;99.90;;;;;;5127833;27;20855;-63
2022/11/06 13:10:22;;;;;;;4.23;2.50;;;11.30;99.90;;;;;;5137143;27;20917;-63
2022/11/06 13:13:02;;;;;;;5.07;2.90;;;11.30;99.90;;;;;;5131888;27;20963;-63
2022/11/06 13:15:34;;;;;;;3.73;2.80;;;11.30;99.90;;;;;;5134142;27;20482;-63
2022/11/06 13:18:11;;;;;;;5.60;2.53;;;11.20;99.90;;;;;;5141246;27;20525;-63
2022/11/06 13:20:50;;;;;;;5.63;2.93;;;11.30;99.90;;;;;;5140935;27;20465;-63
2022/11/06 13:23:24;;;;;;;7.20;2.60;;;11.50;99.90;;;;;;5128980;27;20466;-63
2022/11/06 13:26:00;;;;;;;5.13;2.30;;;11.50;99.90;;;;;;5120196;28;20459;-64
2022/11/06 13:28:32;;;;;;;4.27;2.83;;;11.70;99.90;;;;;;5133697;27;20459;-62
2022/11/06 13:31:03;;;;;;;5.57;3.00;;;11.80;99.90;;;;;;5122002;27;20463;-64